createdAt,value
2018-02-10T00:00:10.196Z,75.34
2018-02-10T00:01:11.998Z,75.12
2018-02-10T00:02:13.786Z,75.59
2018-02-10T00:03:15.661Z,75.59
2018-02-10T00:04:17.527Z,75.68
2018-02-10T00:05:19.379Z,75.78
2018-02-10T00:06:33.519Z,75.96
2018-02-10T00:07:35.391Z,75.31
2018-02-10T00:08:37.238Z,75.49
2018-02-10T00:09:39.106Z,75.96
2018-02-10T00:10:40.897Z,75.78
2018-02-10T00:11:42.700Z,75.72
2018-02-10T00:12:44.664Z,75.49
2018-02-10T00:13:46.511Z,75.81
2018-02-10T00:14:48.357Z,75.43
2018-02-10T00:16:02.476Z,75.15
2018-02-10T00:17:04.330Z,75.12
2018-02-10T00:18:06.199Z,75.02
2018-02-10T00:19:08.050Z,75.53
2018-02-10T00:20:09.836Z,75.78
2018-02-10T00:21:11.639Z,75.15
2018-02-10T00:22:13.495Z,74.93
2018-02-10T00:23:15.367Z,75.68
2018-02-10T00:24:17.223Z,75.78
2018-02-10T00:25:31.409Z,75.40
2018-02-10T00:26:33.261Z,75.87
2018-02-10T00:27:35.126Z,75.40
2018-02-10T00:28:36.980Z,75.78
2018-02-10T00:29:38.761Z,75.59
2018-02-10T00:30:40.549Z,75.31
2018-02-10T00:31:42.421Z,75.31
2018-02-10T00:32:44.292Z,75.31
2018-02-10T00:33:46.158Z,75.68
2018-02-10T00:35:00.329Z,75.78
2018-02-10T00:36:02.203Z,75.68
2018-02-10T00:37:04.051Z,75.68
2018-02-10T00:38:05.903Z,75.68
2018-02-10T00:39:07.704Z,75.78
2018-02-10T00:40:09.491Z,75.68
2018-02-10T00:41:11.360Z,76.15
2018-02-10T00:42:13.211Z,75.96
2018-02-10T00:43:15.064Z,76.15
2018-02-10T00:44:29.248Z,76.63
2018-02-10T00:45:31.103Z,76.53
2018-02-10T00:46:32.951Z,76.72
2018-02-10T00:47:34.807Z,76.34
2018-02-10T00:48:36.590Z,76.34
2018-02-10T00:49:38.373Z,76.44
2018-02-10T00:50:40.245Z,76.25
2018-02-10T00:51:42.117Z,76.82
2018-02-10T00:52:43.989Z,76.82
2018-02-10T00:53:58.172Z,77.10
2018-02-10T00:55:00.027Z,77.01
2018-02-10T00:56:01.879Z,77.20
2018-02-10T00:57:03.727Z,77.10
2018-02-10T00:58:05.518Z,77.39
2018-02-10T00:59:07.324Z,77.39
2018-02-10T01:00:09.194Z,77.10
2018-02-10T01:01:11.067Z,77.10
2018-02-10T01:02:12.938Z,77.10
2018-02-10T01:03:27.069Z,77.29
2018-02-10T01:04:28.927Z,77.39
2018-02-10T01:05:30.776Z,77.29
2018-02-10T01:06:32.632Z,77.39
2018-02-10T01:07:34.436Z,77.58
2018-02-10T01:08:36.223Z,77.48
2018-02-10T01:09:38.090Z,77.29
2018-02-10T01:10:39.943Z,77.58
2018-02-10T01:11:41.809Z,77.58
2018-02-10T01:12:55.927Z,77.39
2018-02-10T01:13:57.778Z,77.95
2018-02-10T01:14:59.637Z,77.95
2018-02-10T01:16:01.507Z,77.76
2018-02-10T01:17:03.317Z,77.67
2018-02-10T01:18:05.087Z,77.95
2018-02-10T01:19:06.946Z,77.95
2018-02-10T01:20:08.916Z,77.76
2018-02-10T01:21:10.768Z,77.76
2018-02-10T01:22:24.932Z,77.76
2018-02-10T01:23:26.762Z,77.67
2018-02-10T01:24:28.612Z,78.05
2018-02-10T01:25:30.466Z,77.76
2018-02-10T01:26:32.252Z,77.39
2018-02-10T01:27:34.058Z,77.48
2018-02-10T01:28:35.927Z,77.29
2018-02-10T01:29:37.773Z,77.29
2018-02-10T01:30:39.632Z,77.67
2018-02-10T01:31:53.809Z,77.48
2018-02-10T01:32:55.663Z,77.76
2018-02-10T01:33:57.520Z,77.95
2018-02-10T01:34:59.383Z,77.86
2018-02-10T01:36:01.166Z,77.95
2018-02-10T01:37:02.953Z,78.33
2018-02-10T01:38:04.810Z,78.33
2018-02-10T01:39:06.652Z,78.23
2018-02-10T01:40:08.503Z,78.05
2018-02-10T01:41:22.675Z,78.14
2018-02-10T01:42:24.546Z,78.33
2018-02-10T01:43:26.401Z,77.86
2018-02-10T01:44:28.269Z,78.05
2018-02-10T01:45:30.052Z,78.14
2018-02-10T01:46:31.844Z,77.67
2018-02-10T01:47:33.708Z,77.76
2018-02-10T01:48:35.559Z,77.95
2018-02-10T01:49:37.408Z,77.86
2018-02-10T01:50:51.522Z,77.58
2018-02-10T01:51:53.374Z,77.86
2018-02-10T01:52:55.225Z,78.10
2018-02-10T01:53:57.085Z,78.01
2018-02-10T01:54:58.890Z,78.29
2018-02-10T01:56:00.676Z,78.86
2018-02-10T01:57:02.545Z,78.67
2018-02-10T01:58:04.393Z,78.95
2018-02-10T01:59:06.265Z,78.67
2018-02-10T02:00:20.432Z,78.67
2018-02-10T02:01:22.280Z,78.67
2018-02-10T02:02:24.133Z,78.76
2018-02-10T02:03:25.989Z,78.76
2018-02-10T02:04:27.773Z,78.67
2018-02-10T02:05:29.557Z,78.67
2018-02-10T02:06:31.428Z,78.86
2018-02-10T02:07:33.293Z,78.67
2018-02-10T02:08:35.142Z,78.67
2018-02-10T02:09:49.295Z,78.58
2018-02-10T02:10:51.164Z,79.05
2018-02-10T02:11:53.015Z,78.95
2018-02-10T02:12:54.882Z,78.86
2018-02-10T02:13:56.669Z,78.95
2018-02-10T02:14:58.449Z,78.95
2018-02-10T02:16:00.304Z,78.95
2018-02-10T02:17:02.153Z,78.95
2018-02-10T02:18:04.005Z,78.95
2018-02-10T02:19:18.142Z,79.43
2018-02-10T02:20:20.018Z,79.43
2018-02-10T02:21:21.884Z,78.67
2018-02-10T02:22:23.742Z,79.33
2018-02-10T02:23:25.549Z,79.05
2018-02-10T02:24:27.346Z,79.33
2018-02-10T02:25:29.201Z,79.61
2018-02-10T02:26:31.073Z,79.61
2018-02-10T02:27:32.937Z,79.14
2018-02-10T02:28:47.056Z,79.43
2018-02-10T02:29:48.910Z,79.14
2018-02-10T02:30:50.780Z,78.76
2018-02-10T02:31:52.627Z,79.14
2018-02-10T02:32:54.509Z,78.67
2018-02-10T02:33:56.295Z,78.58
2018-02-10T02:34:58.143Z,78.67
2018-02-10T02:35:59.989Z,78.86
2018-02-10T02:37:01.844Z,78.29
2018-02-10T02:38:15.978Z,78.76
2018-02-10T02:39:17.853Z,78.95
2018-02-10T02:40:19.725Z,78.58
2018-02-10T02:41:21.594Z,78.58
2018-02-10T02:42:23.375Z,78.48
2018-02-10T02:43:25.157Z,78.58
2018-02-10T02:44:27.008Z,78.58
2018-02-10T02:45:28.861Z,78.58
2018-02-10T02:46:30.727Z,78.76
2018-02-10T02:47:44.847Z,79.14
2018-02-10T02:48:46.724Z,79.14
2018-02-10T02:49:48.593Z,78.86
2018-02-10T02:50:50.445Z,79.24
2018-02-10T02:51:52.233Z,79.43
2018-02-10T02:52:54.022Z,79.14
2018-02-10T02:53:55.875Z,79.80
2018-02-10T02:54:57.745Z,79.71
2018-02-10T02:55:59.592Z,79.52
2018-02-10T02:57:13.711Z,79.52
2018-02-10T02:58:15.592Z,79.52
2018-02-10T02:59:17.438Z,79.43
2018-02-10T03:00:19.315Z,79.61
2018-02-10T03:01:21.119Z,79.61
2018-02-10T03:02:22.909Z,79.61
2018-02-10T03:03:24.780Z,79.71
2018-02-10T03:04:26.653Z,79.24
2018-02-10T03:05:28.525Z,79.80
2018-02-10T03:06:42.641Z,79.80
2018-02-10T03:07:44.509Z,80.08
2018-02-10T03:08:46.362Z,79.33
2018-02-10T03:09:48.215Z,79.61
2018-02-10T03:10:50.019Z,79.33
2018-02-10T03:11:51.806Z,80.08
2018-02-10T03:12:53.680Z,80.08
2018-02-10T03:13:55.549Z,79.80
2018-02-10T03:14:57.404Z,80.27
2018-02-10T03:16:11.543Z,79.99
2018-02-10T03:17:13.417Z,79.61
2018-02-10T03:18:15.290Z,79.61
2018-02-10T03:19:17.147Z,79.80
2018-02-10T03:20:18.955Z,79.90
2018-02-10T03:21:20.765Z,79.80
2018-02-10T03:22:22.638Z,79.80
2018-02-10T03:23:24.506Z,79.90
2018-02-10T03:24:26.366Z,79.90
2018-02-10T03:25:40.501Z,79.90
2018-02-10T03:26:42.360Z,79.80
2018-02-10T03:27:44.233Z,80.08
2018-02-10T03:28:46.101Z,79.90
2018-02-10T03:29:47.890Z,79.90
2018-02-10T03:30:49.677Z,79.71
2018-02-10T03:31:51.551Z,79.90
2018-02-10T03:32:53.398Z,80.24
2018-02-10T03:33:55.248Z,80.37
2018-02-10T03:35:09.363Z,79.90
2018-02-10T03:36:11.235Z,80.08
2018-02-10T03:37:13.090Z,80.08
2018-02-10T03:38:14.944Z,79.95
2018-02-10T03:39:16.727Z,80.24
2018-02-10T03:40:18.509Z,80.18
2018-02-10T03:41:20.381Z,80.18
2018-02-10T03:42:22.249Z,79.95
2018-02-10T03:43:24.104Z,79.95
2018-02-10T03:44:38.266Z,79.99
2018-02-10T03:45:40.113Z,79.99
2018-02-10T03:46:41.969Z,79.99
2018-02-10T03:47:43.819Z,79.86
2018-02-10T03:48:45.607Z,79.95
2018-02-10T03:49:47.393Z,80.05
2018-02-10T03:50:49.265Z,79.95
2018-02-10T03:51:51.111Z,79.95
2018-02-10T03:52:52.962Z,79.38
2018-02-10T03:54:07.083Z,79.95
2018-02-10T03:55:08.955Z,79.95
2018-02-10T03:56:10.809Z,80.05
2018-02-10T03:57:12.688Z,80.05
2018-02-10T03:58:14.471Z,80.43
2018-02-10T03:59:16.262Z,80.80
2018-02-10T04:00:18.137Z,80.80
2018-02-10T04:01:20.011Z,80.80
2018-02-10T04:02:21.879Z,80.52
2018-02-10T04:03:36.054Z,80.14
2018-02-10T04:04:37.922Z,80.05
2018-02-10T04:05:39.774Z,80.14
2018-02-10T04:06:41.630Z,79.80
2018-02-10T04:07:43.438Z,79.29
2018-02-10T04:08:45.244Z,79.52
2018-02-10T04:09:47.117Z,79.52
2018-02-10T04:10:48.962Z,79.10
2018-02-10T04:11:50.821Z,78.53
2018-02-10T04:13:04.938Z,79.00
2018-02-10T04:14:06.799Z,79.10
2018-02-10T04:15:08.677Z,79.67
2018-02-10T04:16:10.548Z,79.67
2018-02-10T04:17:12.333Z,80.52
2018-02-10T04:18:14.121Z,80.80
2018-02-10T04:19:15.980Z,80.90
2018-02-10T04:20:17.848Z,80.99
2018-02-10T04:21:19.704Z,80.80
2018-02-10T04:22:33.874Z,80.65
2018-02-10T04:23:35.729Z,80.08
2018-02-10T04:24:37.600Z,80.18
2018-02-10T04:25:39.475Z,79.80
2018-02-10T04:26:41.282Z,79.43
2018-02-10T04:27:43.083Z,79.52
2018-02-10T04:28:44.937Z,79.61
2018-02-10T04:29:46.791Z,79.71
2018-02-10T04:30:48.645Z,79.33
2018-02-10T04:32:02.786Z,79.33
2018-02-10T04:33:04.635Z,78.76
2018-02-10T04:34:06.488Z,79.52
2018-02-10T04:35:08.362Z,79.24
2018-02-10T04:36:10.149Z,78.86
2018-02-10T04:37:11.931Z,78.86
2018-02-10T04:38:13.784Z,78.58
2018-02-10T04:39:15.630Z,79.05
2018-02-10T04:40:17.484Z,78.67
2018-02-10T04:41:31.619Z,79.05
2018-02-10T04:42:33.472Z,78.29
2018-02-10T04:43:35.331Z,78.29
2018-02-10T04:44:37.183Z,78.29
2018-02-10T04:45:38.988Z,78.29
2018-02-10T04:46:40.774Z,78.10
2018-02-10T04:47:42.648Z,78.01
2018-02-10T04:48:44.616Z,78.01
2018-02-10T04:49:46.474Z,77.91
2018-02-10T04:51:00.593Z,77.91
2018-02-10T04:52:02.468Z,77.91
2018-02-10T04:53:04.342Z,78.33
2018-02-10T04:54:06.195Z,78.33
2018-02-10T04:55:08.003Z,78.42
2018-02-10T04:56:09.811Z,78.29
2018-02-10T04:57:11.690Z,78.42
2018-02-10T04:58:13.557Z,78.80
2018-02-10T04:59:15.409Z,78.80
2018-02-10T05:00:29.530Z,79.09
2018-02-10T05:01:31.385Z,78.14
2018-02-10T05:02:33.239Z,78.33
2018-02-10T05:03:35.111Z,78.14
2018-02-10T05:04:36.898Z,77.86
2018-02-10T05:05:38.692Z,77.95
2018-02-10T05:06:40.562Z,78.14
2018-02-10T05:07:42.436Z,77.67
2018-02-10T05:08:44.288Z,77.76
2018-02-10T05:09:58.402Z,77.58
2018-02-10T05:11:00.279Z,77.58
2018-02-10T05:12:02.148Z,77.67
2018-02-10T05:13:03.996Z,77.86
2018-02-10T05:14:05.788Z,78.14
2018-02-10T05:15:07.590Z,78.33
2018-02-10T05:16:09.446Z,78.33
2018-02-10T05:17:11.295Z,78.33
2018-02-10T05:18:13.146Z,78.33
2018-02-10T05:19:27.334Z,78.42
2018-02-10T05:20:29.193Z,78.33
2018-02-10T05:21:31.044Z,78.33
2018-02-10T05:22:32.890Z,78.33
2018-02-10T05:23:34.681Z,78.05
2018-02-10T05:24:36.489Z,78.05
2018-02-10T05:25:38.361Z,77.86
2018-02-10T05:26:40.216Z,78.33
2018-02-10T05:27:42.070Z,78.33
2018-02-10T05:28:56.211Z,77.95
2018-02-10T05:29:58.063Z,77.58
2018-02-10T05:30:59.919Z,77.67
2018-02-10T05:32:01.792Z,77.95
2018-02-10T05:33:03.598Z,77.76
2018-02-10T05:34:05.405Z,77.86
2018-02-10T05:35:07.275Z,78.23
2018-02-10T05:36:09.123Z,78.05
2018-02-10T05:37:10.980Z,77.91
2018-02-10T05:38:25.158Z,78.39
2018-02-10T05:39:26.968Z,78.42
2018-02-10T05:40:28.825Z,78.14
2018-02-10T05:41:30.700Z,78.14
2018-02-10T05:42:32.508Z,78.33
2018-02-10T05:43:34.286Z,78.52
2018-02-10T05:44:36.156Z,78.33
2018-02-10T05:45:38.012Z,78.14
2018-02-10T05:46:39.881Z,78.42
2018-02-10T05:47:53.999Z,78.23
2018-02-10T05:48:55.853Z,78.14
2018-02-10T05:49:57.708Z,78.23
2018-02-10T05:50:59.576Z,77.95
2018-02-10T05:52:01.374Z,78.14
2018-02-10T05:53:03.179Z,78.14
2018-02-10T05:54:05.051Z,77.76
2018-02-10T05:55:06.898Z,77.86
2018-02-10T05:56:08.750Z,77.76
2018-02-10T05:57:22.867Z,77.95
2018-02-10T05:58:24.737Z,78.23
2018-02-10T05:59:26.591Z,78.23
2018-02-10T06:00:28.447Z,78.23
2018-02-10T06:01:30.246Z,78.33
2018-02-10T06:02:32.049Z,78.33
2018-02-10T06:03:33.879Z,78.33
2018-02-10T06:04:35.728Z,78.05
2018-02-10T06:05:37.582Z,77.86
2018-02-10T06:06:51.725Z,78.14
2018-02-10T06:07:53.601Z,77.86
2018-02-10T06:08:55.474Z,77.76
2018-02-10T06:09:57.330Z,77.76
2018-02-10T06:10:59.119Z,77.86
2018-02-10T06:12:00.930Z,77.48
2018-02-10T06:13:02.805Z,77.48
2018-02-10T06:14:04.676Z,77.58
2018-02-10T06:15:06.532Z,77.48
2018-02-10T06:16:20.654Z,77.20
2018-02-10T06:17:22.507Z,77.20
2018-02-10T06:18:24.366Z,77.29
2018-02-10T06:19:26.220Z,77.20
2018-02-10T06:20:28.029Z,77.39
2018-02-10T06:21:29.833Z,77.39
2018-02-10T06:22:31.692Z,77.48
2018-02-10T06:23:33.565Z,77.39
2018-02-10T06:24:35.419Z,77.48
2018-02-10T06:25:49.563Z,77.58
2018-02-10T06:26:51.454Z,77.48
2018-02-10T06:27:53.358Z,77.29
2018-02-10T06:28:55.178Z,77.20
2018-02-10T06:29:56.985Z,77.29
2018-02-10T06:30:58.795Z,77.20
2018-02-10T06:32:00.675Z,77.39
2018-02-10T06:33:02.539Z,77.48
2018-02-10T06:34:04.398Z,77.58
2018-02-10T06:35:18.540Z,77.76
2018-02-10T06:36:20.397Z,78.05
2018-02-10T06:37:22.252Z,78.33
2018-02-10T06:38:24.100Z,78.23
2018-02-10T06:39:25.892Z,78.42
2018-02-10T06:40:27.680Z,78.42
2018-02-10T06:41:29.536Z,78.42
2018-02-10T06:42:31.388Z,78.46
2018-02-10T06:43:33.244Z,78.42
2018-02-10T06:44:47.366Z,78.46
2018-02-10T06:45:49.227Z,78.27
2018-02-10T06:46:51.101Z,78.27
2018-02-10T06:47:52.950Z,78.65
2018-02-10T06:48:54.740Z,78.46
2018-02-10T06:49:56.526Z,78.33
2018-02-10T06:50:58.383Z,78.23
2018-02-10T06:52:00.242Z,78.33
2018-02-10T06:53:02.119Z,78.23
2018-02-10T06:54:16.315Z,78.52
2018-02-10T06:55:18.188Z,78.52
2018-02-10T06:56:20.046Z,78.37
2018-02-10T06:57:21.921Z,78.18
2018-02-10T06:58:23.734Z,77.80
2018-02-10T06:59:25.544Z,78.14
2018-02-10T07:00:27.422Z,77.86
2018-02-10T07:01:29.349Z,78.52
2018-02-10T07:02:31.246Z,78.33
2018-02-10T07:03:45.365Z,78.14
2018-02-10T07:04:47.223Z,78.52
2018-02-10T07:05:49.096Z,78.42
2018-02-10T07:06:50.934Z,78.42
2018-02-10T07:07:52.727Z,78.56
2018-02-10T07:08:54.530Z,78.08
2018-02-10T07:09:56.390Z,78.08
2018-02-10T07:10:58.250Z,77.99
2018-02-10T07:12:00.155Z,77.61
2018-02-10T07:13:14.265Z,77.89
2018-02-10T07:14:16.153Z,77.99
2018-02-10T07:15:17.999Z,77.61
2018-02-10T07:16:19.882Z,77.51
2018-02-10T07:17:21.673Z,77.42
2018-02-10T07:18:23.486Z,79.79
2018-02-10T07:19:25.362Z,82.82
2018-02-10T07:20:27.236Z,82.82
2018-02-10T07:21:29.103Z,82.44
2018-02-10T07:22:43.271Z,82.63
2018-02-10T07:23:45.158Z,81.96
2018-02-10T07:24:47.027Z,81.63
2018-02-10T07:25:48.911Z,80.77
2018-02-10T07:26:50.699Z,80.11
2018-02-10T07:27:52.485Z,79.45
2018-02-10T07:28:54.354Z,78.59
2018-02-10T07:29:56.238Z,78.31
2018-02-10T07:30:58.116Z,77.99
2018-02-10T07:32:12.262Z,77.65
2018-02-10T07:33:14.133Z,77.56
2018-02-10T07:34:15.989Z,77.37
2018-02-10T07:35:17.844Z,77.23
2018-02-10T07:36:19.641Z,77.65
2018-02-10T07:37:21.454Z,77.18
2018-02-10T07:38:23.331Z,77.37
2018-02-10T07:39:25.190Z,77.27
2018-02-10T07:40:27.067Z,76.80
2018-02-10T07:41:41.257Z,76.42
2018-02-10T07:42:43.122Z,76.51
2018-02-10T07:43:44.982Z,76.70
2018-02-10T07:44:46.861Z,76.51
2018-02-10T07:45:48.655Z,76.32
2018-02-10T07:46:50.442Z,75.66
2018-02-10T07:47:52.305Z,75.66
2018-02-10T07:48:54.177Z,75.76
2018-02-10T07:49:56.238Z,75.85
2018-02-10T07:51:10.580Z,75.76
2018-02-10T07:52:12.471Z,75.76
2018-02-10T07:53:14.348Z,76.14
2018-02-10T07:54:16.206Z,75.47
2018-02-10T07:55:18.002Z,75.76
2018-02-10T07:56:19.811Z,74.81
2018-02-10T07:57:21.675Z,75.09
2018-02-10T07:58:23.549Z,75.38
2018-02-10T07:59:25.409Z,75.38
2018-02-10T08:00:39.538Z,75.00
2018-02-10T08:01:41.424Z,75.38
2018-02-10T08:02:43.294Z,74.71
2018-02-10T08:03:45.150Z,74.95
2018-02-10T08:04:46.939Z,74.85
2018-02-10T08:05:48.732Z,74.85
2018-02-10T08:06:50.611Z,74.75
2018-02-10T08:07:52.518Z,74.95
2018-02-10T08:08:54.371Z,74.85
2018-02-10T08:10:08.502Z,74.85
2018-02-10T08:11:10.381Z,75.04
2018-02-10T08:12:12.259Z,74.75
2018-02-10T08:13:14.141Z,74.95
2018-02-10T08:14:15.941Z,74.75
2018-02-10T08:15:17.754Z,74.95
2018-02-10T08:16:19.631Z,74.85
2018-02-10T08:17:21.491Z,74.85
2018-02-10T08:18:23.348Z,74.56
2018-02-10T08:19:37.493Z,75.23
2018-02-10T08:20:39.352Z,75.13
2018-02-10T08:21:41.222Z,74.56
2018-02-10T08:22:43.097Z,74.47
2018-02-10T08:23:44.891Z,74.85
2018-02-10T08:24:46.688Z,74.75
2018-02-10T08:25:48.603Z,74.75
2018-02-10T08:26:50.422Z,74.56
2018-02-10T08:27:52.287Z,74.95
2018-02-10T08:29:06.413Z,74.95
2018-02-10T08:30:08.273Z,74.85
2018-02-10T08:31:10.129Z,74.56
2018-02-10T08:32:11.988Z,74.85
2018-02-10T08:33:13.788Z,74.47
2018-02-10T08:34:15.597Z,74.47
2018-02-10T08:35:17.460Z,73.90
2018-02-10T08:36:19.325Z,73.80
2018-02-10T08:37:21.200Z,73.90
2018-02-10T08:38:35.326Z,73.99
2018-02-10T08:39:37.207Z,73.90
2018-02-10T08:40:39.066Z,74.09
2018-02-10T08:41:40.941Z,74.66
2018-02-10T08:42:42.734Z,74.03
2018-02-10T08:43:44.526Z,74.03
2018-02-10T08:44:46.389Z,73.90
2018-02-10T08:45:48.252Z,73.84
2018-02-10T08:46:50.145Z,74.03
2018-02-10T08:48:04.292Z,73.94
2018-02-10T08:49:06.150Z,74.22
2018-02-10T08:50:08.010Z,74.22
2018-02-10T08:51:09.868Z,73.84
2018-02-10T08:52:11.678Z,73.65
2018-02-10T08:53:13.470Z,73.65
2018-02-10T08:54:15.338Z,73.56
2018-02-10T08:55:17.212Z,74.03
2018-02-10T08:56:19.212Z,73.94
2018-02-10T08:57:33.389Z,74.88
2018-02-10T08:58:35.274Z,75.17
2018-02-10T08:59:37.128Z,74.98
2018-02-10T09:00:39.006Z,74.41
2018-02-10T09:01:40.842Z,74.03
2018-02-10T09:02:42.636Z,74.13
2018-02-10T09:03:44.528Z,74.22
2018-02-10T09:04:46.399Z,73.94
2018-02-10T09:05:48.281Z,73.94
2018-02-10T09:07:02.430Z,74.03
2018-02-10T09:08:04.313Z,74.03
2018-02-10T09:09:06.197Z,74.03
2018-02-10T09:10:08.069Z,73.94
2018-02-10T09:11:09.873Z,74.03
2018-02-10T09:12:11.710Z,74.22
2018-02-10T09:13:13.548Z,73.94
2018-02-10T09:14:15.427Z,74.13
2018-02-10T09:15:17.284Z,73.84
2018-02-10T09:16:31.435Z,74.13
2018-02-10T09:17:33.322Z,73.46
2018-02-10T09:18:35.196Z,73.65
2018-02-10T09:19:37.061Z,73.46
2018-02-10T09:20:38.875Z,73.65
2018-02-10T09:21:40.674Z,73.65
2018-02-10T09:22:42.537Z,73.84
2018-02-10T09:23:44.410Z,73.56
2018-02-10T09:24:46.282Z,73.27
2018-02-10T09:26:00.408Z,73.41
2018-02-10T09:27:02.272Z,73.50
2018-02-10T09:28:04.146Z,73.31
2018-02-10T09:29:06.025Z,73.22
2018-02-10T09:30:07.829Z,72.84
2018-02-10T09:31:09.647Z,73.50
2018-02-10T09:32:11.551Z,73.69
2018-02-10T09:33:13.438Z,73.31
2018-02-10T09:34:15.305Z,73.12
2018-02-10T09:35:29.453Z,72.84
2018-02-10T09:36:31.332Z,73.03
2018-02-10T09:37:33.191Z,72.55
2018-02-10T09:38:35.053Z,72.52
2018-02-10T09:39:36.851Z,72.61
2018-02-10T09:40:38.643Z,72.42
2018-02-10T09:41:40.517Z,72.52
2018-02-10T09:42:42.331Z,72.71
2018-02-10T09:43:44.130Z,72.80
2018-02-10T09:44:58.300Z,72.80
2018-02-10T09:46:00.181Z,72.04
2018-02-10T09:47:02.046Z,72.55
2018-02-10T09:48:03.937Z,72.55
2018-02-10T09:49:05.764Z,72.27
2018-02-10T09:50:07.576Z,71.98
2018-02-10T09:51:09.435Z,72.08
2018-02-10T09:52:11.339Z,71.70
2018-02-10T09:53:13.161Z,71.70
2018-02-10T09:54:27.435Z,71.22
2018-02-10T09:55:29.330Z,71.32
2018-02-10T09:56:31.194Z,71.22
2018-02-10T09:57:33.156Z,70.75
2018-02-10T09:58:34.991Z,70.84
2018-02-10T09:59:36.889Z,71.22
2018-02-10T10:00:38.749Z,70.75
2018-02-10T10:01:40.666Z,70.75
2018-02-10T10:02:42.502Z,70.28
2018-02-10T10:03:56.634Z,70.28
2018-02-10T10:04:58.509Z,70.09
2018-02-10T10:06:00.390Z,70.28
2018-02-10T10:07:02.255Z,70.65
2018-02-10T10:08:04.063Z,70.47
2018-02-10T10:09:05.861Z,69.90
2018-02-10T10:10:07.727Z,70.18
2018-02-10T10:11:09.589Z,69.90
2018-02-10T10:12:11.468Z,70.18
2018-02-10T10:13:25.616Z,70.28
2018-02-10T10:14:27.500Z,69.99
2018-02-10T10:15:29.362Z,69.80
2018-02-10T10:16:31.226Z,69.61
2018-02-10T10:17:33.019Z,69.90
2018-02-10T10:18:34.819Z,69.90
2018-02-10T10:19:36.685Z,70.09
2018-02-10T10:20:38.560Z,70.37
2018-02-10T10:21:40.420Z,70.28
2018-02-10T10:22:54.555Z,70.12
2018-02-10T10:23:56.440Z,69.36
2018-02-10T10:24:58.303Z,68.98
2018-02-10T10:26:00.186Z,68.60
2018-02-10T10:27:02.001Z,67.94
2018-02-10T10:28:03.832Z,67.85
2018-02-10T10:29:05.662Z,67.37
2018-02-10T10:30:07.520Z,66.71
2018-02-10T10:31:09.399Z,65.85
2018-02-10T10:32:23.541Z,64.52
2018-02-10T10:33:25.398Z,63.86
2018-02-10T10:34:27.246Z,63.86
2018-02-10T10:35:29.106Z,63.10
2018-02-10T10:36:30.902Z,62.91
2018-02-10T10:37:32.721Z,62.72
2018-02-10T10:38:34.588Z,63.01
2018-02-10T10:39:36.523Z,62.62
2018-02-10T10:40:38.402Z,62.72
2018-02-10T10:41:52.551Z,61.96
2018-02-10T10:42:54.512Z,61.87
2018-02-10T10:43:56.380Z,61.68
2018-02-10T10:44:58.237Z,61.87
2018-02-10T10:46:00.085Z,61.68
2018-02-10T10:47:01.898Z,61.77
2018-02-10T10:48:03.810Z,61.20
2018-02-10T10:49:05.636Z,61.30
2018-02-10T10:50:07.517Z,61.39
2018-02-10T10:51:21.646Z,61.20
2018-02-10T10:52:23.506Z,61.55
2018-02-10T10:53:25.389Z,61.55
2018-02-10T10:54:27.269Z,61.93
2018-02-10T10:55:29.067Z,62.78
2018-02-10T10:56:30.880Z,62.40
2018-02-10T10:57:32.765Z,63.17
2018-02-10T10:58:34.637Z,62.59
2018-02-10T10:59:36.507Z,61.74
2018-02-10T11:00:50.704Z,62.08
2018-02-10T11:01:52.599Z,62.75
2018-02-10T11:02:54.483Z,63.23
2018-02-10T11:03:56.362Z,63.17
2018-02-10T11:04:58.180Z,62.88
2018-02-10T11:05:59.987Z,62.78
2018-02-10T11:07:01.846Z,63.07
2018-02-10T11:08:03.704Z,62.78
2018-02-10T11:09:05.564Z,62.88
2018-02-10T11:10:19.738Z,62.50
2018-02-10T11:11:21.595Z,62.50
2018-02-10T11:12:23.492Z,62.40
2018-02-10T11:13:25.339Z,62.78
2018-02-10T11:14:27.133Z,62.88
2018-02-10T11:15:28.950Z,63.26
2018-02-10T11:16:30.807Z,63.26
2018-02-10T11:17:32.686Z,63.07
2018-02-10T11:18:34.584Z,63.45
2018-02-10T11:19:48.742Z,63.07
2018-02-10T11:20:50.623Z,62.78
2018-02-10T11:21:52.489Z,63.07
2018-02-10T11:22:54.383Z,62.85
2018-02-10T11:23:56.152Z,63.42
2018-02-10T11:24:57.950Z,63.70
2018-02-10T11:25:59.814Z,63.79
2018-02-10T11:27:01.691Z,63.60
2018-02-10T11:28:03.549Z,63.60
2018-02-10T11:29:17.696Z,63.32
2018-02-10T11:30:19.569Z,63.23
2018-02-10T11:31:21.439Z,62.97
2018-02-10T11:32:23.297Z,62.78
2018-02-10T11:33:25.098Z,62.69
2018-02-10T11:34:26.892Z,62.69
2018-02-10T11:35:28.753Z,61.83
2018-02-10T11:36:30.638Z,61.93
2018-02-10T11:37:32.519Z,61.77
2018-02-10T11:38:46.679Z,61.68
2018-02-10T11:39:48.556Z,60.73
2018-02-10T11:40:50.423Z,60.35
2018-02-10T11:41:52.297Z,60.06
2018-02-10T11:42:54.097Z,60.25
2018-02-10T11:43:55.909Z,59.84
2018-02-10T11:44:57.771Z,60.22
2018-02-10T11:45:59.653Z,60.60
2018-02-10T11:47:01.515Z,60.22
2018-02-10T11:48:15.669Z,61.46
2018-02-10T11:49:17.542Z,61.27
2018-02-10T11:50:19.416Z,61.27
2018-02-10T11:51:21.297Z,61.36
2018-02-10T11:52:23.121Z,61.46
2018-02-10T11:53:24.930Z,60.79
2018-02-10T11:54:26.808Z,60.79
2018-02-10T11:55:28.670Z,60.98
2018-02-10T11:56:30.544Z,60.89
2018-02-10T11:57:44.746Z,60.25
2018-02-10T11:58:46.597Z,60.44
2018-02-10T11:59:48.461Z,60.25
2018-02-10T12:00:50.341Z,60.63
2018-02-10T12:01:52.169Z,60.25
2018-02-10T12:02:53.974Z,59.71
2018-02-10T12:03:55.855Z,59.14
2018-02-10T12:04:57.693Z,58.73
2018-02-10T12:05:59.575Z,58.39
2018-02-10T12:07:13.690Z,58.76
2018-02-10T12:08:15.553Z,58.67
2018-02-10T12:09:17.421Z,58.86
2018-02-10T12:10:19.295Z,58.39
2018-02-10T12:11:21.110Z,58.20
2018-02-10T12:12:22.929Z,58.10
2018-02-10T12:13:24.790Z,57.62
2018-02-10T12:14:26.649Z,57.62
2018-02-10T12:15:28.505Z,57.43
2018-02-10T12:16:42.636Z,56.68
2018-02-10T12:17:44.516Z,56.58
2018-02-10T12:18:46.413Z,56.77
2018-02-10T12:19:48.241Z,56.96
2018-02-10T12:20:50.058Z,56.68
2018-02-10T12:21:51.858Z,56.20
2018-02-10T12:22:53.728Z,56.68
2018-02-10T12:23:55.599Z,56.58
2018-02-10T12:24:57.457Z,57.34
2018-02-10T12:26:11.608Z,57.15
2018-02-10T12:27:13.473Z,57.34
2018-02-10T12:28:15.329Z,57.34
2018-02-10T12:29:17.181Z,57.34
2018-02-10T12:30:18.981Z,56.96
2018-02-10T12:31:20.777Z,56.58
2018-02-10T12:32:22.637Z,56.29
2018-02-10T12:33:24.490Z,56.29
2018-02-10T12:34:26.346Z,55.91
2018-02-10T12:35:40.473Z,55.91
2018-02-10T12:36:42.340Z,56.29
2018-02-10T12:37:44.219Z,56.10
2018-02-10T12:38:46.083Z,56.49
2018-02-10T12:39:47.873Z,55.63
2018-02-10T12:40:49.672Z,55.63
2018-02-10T12:41:51.550Z,55.91
2018-02-10T12:42:53.409Z,55.63
2018-02-10T12:43:55.266Z,55.76
2018-02-10T12:45:09.400Z,55.25
2018-02-10T12:46:11.259Z,55.28
2018-02-10T12:47:13.118Z,55.16
2018-02-10T12:48:14.983Z,55.63
2018-02-10T12:49:16.779Z,55.63
2018-02-10T12:50:18.596Z,55.54
2018-02-10T12:51:20.474Z,55.73
2018-02-10T12:52:22.339Z,55.63
2018-02-10T12:53:24.199Z,55.66
2018-02-10T12:54:38.329Z,55.37
2018-02-10T12:55:40.183Z,55.76
2018-02-10T12:56:42.044Z,55.94
2018-02-10T12:57:43.928Z,56.51
2018-02-10T12:58:45.726Z,56.70
2018-02-10T12:59:47.529Z,56.13
2018-02-10T13:00:49.406Z,56.13
2018-02-10T13:01:51.286Z,55.85
2018-02-10T13:02:53.145Z,55.94
2018-02-10T13:04:07.262Z,55.94
2018-02-10T13:05:09.055Z,55.66
2018-02-10T13:06:10.875Z,55.66
2018-02-10T13:07:12.687Z,55.28
2018-02-10T13:08:14.569Z,55.57
2018-02-10T13:09:16.453Z,55.76
2018-02-10T13:10:18.284Z,55.18
2018-02-10T13:11:20.086Z,55.18
2018-02-10T13:12:21.901Z,54.99
2018-02-10T13:13:36.117Z,54.43
2018-02-10T13:14:37.999Z,54.80
2018-02-10T13:15:39.879Z,54.52
2018-02-10T13:16:41.759Z,54.33
2018-02-10T13:17:43.577Z,54.24
2018-02-10T13:18:45.388Z,54.14
2018-02-10T13:19:47.268Z,54.05
2018-02-10T13:20:49.134Z,54.14
2018-02-10T13:21:50.997Z,54.14
2018-02-10T13:23:05.149Z,54.43
2018-02-10T13:24:07.015Z,54.43
2018-02-10T13:25:08.871Z,54.33
2018-02-10T13:26:10.730Z,54.14
2018-02-10T13:27:12.547Z,54.24
2018-02-10T13:28:14.339Z,54.24
2018-02-10T13:29:16.200Z,54.33
2018-02-10T13:30:18.068Z,54.45
2018-02-10T13:31:19.929Z,55.09
2018-02-10T13:32:34.076Z,54.83
2018-02-10T13:33:35.958Z,54.74